Strona główna
METAR-TAF:

METAR-TAF

Lotnisko :

Port lotniczy Moroni

Moroni, Komory

Szerokość geograficzna: 11-32S, Długość geograficzna: 043-16E, wysokość: 29 m

Aktualna obserwacja pogody

Raport powstał 2 godziny i 51 minut temu, godzina 04:00 UTC
Wiatr 4 kt od wschód
Temperatura 22°C
Wilgotność 78%
Ciśnienie 1016 hPa
Widzialność 10 km lub więcej
Mało chmury na wysokości 2000 ft

METAR: FMCH 210400Z 09004KT 9999 FEW020 22/18 Q1016 NOSIG

czas: 09:51 (06:51 UTC)

Prognoza

Raport powstał 1 godzina i 51 minut temu, godzina 05:00 UTC
Prognoza ważna od 21 godzina 06 UTC do 22 godzina 12 UTC
Wiatr 10 kt od zachód
Widzialność 10 km lub więcej
Mało chmury na wysokości 2000 ft
Stopniowe zmiany
od 21 godzina 15 UTC do 21 godzina 17 UTC
Wiatr 3 kt od wschód
Stopniowe zmiany
od 22 godzina 05 UTC do 22 godzina 07 UTC
Wiatr 13 kt od południowo-południowy zachód

TAF: FMCH 210500Z 2106/2212 26010KT 9999 FEW020 BECMG 2115/2117 10003KT BECMG 2205/2207 20013KT

Obserwacja i prognoza pogody dla ponad 4000 lotnisk (raport METAR i TAF).

Dostępne stacje oznaczono żółtymi i czerwonymi punktami na mapie.

Najedź kursorem aby zobaczyć nazwę stacji.

Kliknij aby zobaczyć obserwacje i prognozy pogody.

Aby zmienić mapę: kliknij na zielony przycisk z czarnym krzyżykiem, aby powiększyć; na zielony przycisk z myślnikiem, aby pomniejszyć; na zielone strzałki, aby przejść do map sąsiednich.


METAR-TAF: